createdAt,value
2019-02-12T00:10:46.770Z,99928.16
2019-02-12T00:16:10.083Z,99945.31
2019-02-12T00:21:14.349Z,99940.57
2019-02-12T00:26:37.564Z,99934.56
2019-02-12T00:31:41.788Z,99926.50
2019-02-12T00:37:05.091Z,99921.07
2019-02-12T00:42:28.339Z,99913.59
2019-02-12T00:47:39.921Z,99923.52
2019-02-12T00:52:55.525Z,99928.69
2019-02-12T00:57:59.762Z,99940.09
2019-02-12T01:08:33.145Z,99935.55
2019-02-12T01:13:37.391Z,99938.91
2019-02-12T01:18:41.752Z,99932.42
2019-02-12T01:23:45.979Z,99935.94
2019-02-12T01:28:50.470Z,99941.28
2019-02-12T01:39:23.701Z,99953.55
2019-02-12T01:49:38.005Z,99957.79
2019-02-12T01:54:53.528Z,99953.88
2019-02-12T01:59:58.124Z,99953.20
2019-02-12T02:05:21.723Z,99955.69
2019-02-12T02:10:44.857Z,99947.80
2019-02-12T02:15:49.449Z,99956.50
2019-02-12T02:21:12.758Z,99954.95
2019-02-12T02:26:17.002Z,99956.33
2019-02-12T02:36:31.816Z,99977.37
2019-02-12T02:41:55.115Z,99965.13
2019-02-12T02:47:18.403Z,99974.21
2019-02-12T02:52:22.628Z,99980.76
2019-02-12T02:57:26.906Z,99988.24
2019-02-12T03:07:41.225Z,99983.09
2019-02-12T03:12:45.486Z,99980.47
2019-02-12T03:17:49.726Z,99984.84
2019-02-12T03:23:13.049Z,99990.98
2019-02-12T03:28:17.282Z,99990.08
2019-02-12T03:33:40.602Z,99989.61
2019-02-12T03:38:45.095Z,100002.70
2019-02-12T03:43:49.406Z,100007.97
2019-02-12T03:48:53.584Z,100012.35
2019-02-12T03:59:47.363Z,100017.59
2019-02-12T04:10:20.234Z,100030.05
2019-02-12T04:15:24.527Z,100027.34
2019-02-12T04:20:28.759Z,100020.77
2019-02-12T04:25:52.133Z,100029.53
2019-02-12T04:30:56.370Z,100026.84
2019-02-12T04:36:00.620Z,100026.91
2019-02-12T04:41:04.910Z,100010.83
2019-02-12T04:46:09.135Z,100012.94
2019-02-12T04:51:13.474Z,100016.47
2019-02-12T04:56:36.795Z,100003.41
2019-02-12T05:01:41.097Z,100013.92
2019-02-12T05:12:35.324Z,100016.47
2019-02-12T05:17:39.622Z,100010.73
2019-02-12T05:27:53.218Z,100005.86
2019-02-12T05:32:57.471Z,100015.86
2019-02-12T05:38:20.880Z,100007.50
2019-02-12T05:43:25.113Z,100015.36
2019-02-12T05:48:48.410Z,100019.80
2019-02-12T05:53:52.660Z,100029.45
2019-02-12T05:59:16.257Z,100015.45
2019-02-12T06:19:49.512Z,100030.27
2019-02-12T06:25:13.133Z,100043.83
2019-02-12T06:30:17.369Z,100056.05
2019-02-12T06:35:21.613Z,100063.45
2019-02-12T06:40:44.826Z,100056.69
2019-02-12T06:45:49.116Z,100066.63
2019-02-12T06:50:53.366Z,100063.24
2019-02-12T06:55:57.615Z,100068.77
2019-02-12T07:01:21.301Z,100070.25
2019-02-12T07:06:36.938Z,100074.20
2019-02-12T07:12:30.240Z,100087.23
2019-02-12T07:18:12.523Z,100094.63
2019-02-12T07:23:51.598Z,100102.38
2019-02-12T07:29:20.410Z,100105.42
2019-02-12T07:34:51.198Z,100128.11
2019-02-12T07:40:33.563Z,100131.87
2019-02-12T07:46:15.885Z,100131.21
2019-02-12T07:51:58.149Z,100132.94
2019-02-12T07:57:40.751Z,100138.80
2019-02-12T08:03:23.144Z,100146.91
2019-02-12T08:08:55.892Z,100165.11
2019-02-12T08:14:38.208Z,100175.06
2019-02-12T08:20:22.232Z,100183.64
2019-02-12T08:26:04.513Z,100200.42
2019-02-12T08:31:46.912Z,100205.64
2019-02-12T08:37:29.201Z,100205.79
2019-02-12T08:43:11.746Z,100216.30
2019-02-12T08:48:54.025Z,100222.17
2019-02-12T08:54:36.314Z,100211.33
2019-02-12T09:00:24.145Z,100216.10
2019-02-12T09:06:06.423Z,100214.88
2019-02-12T09:11:48.883Z,100224.27
2019-02-12T09:17:31.213Z,100224.97
2019-02-12T09:23:13.611Z,100227.39
2019-02-12T09:28:39.647Z,100227.30
2019-02-12T09:34:21.923Z,100234.59
2019-02-12T09:40:04.276Z,100233.28
2019-02-12T09:45:49.626Z,100240.19
2019-02-12T09:51:32.056Z,100246.55
2019-02-12T09:57:14.694Z,100259.27
2019-02-12T10:08:52.985Z,100264.23
2019-02-12T10:14:22.363Z,100270.41
2019-02-12T10:26:02.600Z,100281.78
2019-02-12T10:36:37.269Z,100281.09
2019-02-12T10:41:41.889Z,100279.64
2019-02-12T10:46:46.996Z,100287.34
2019-02-12T10:52:31.057Z,100294.41
2019-02-12T10:57:36.078Z,100292.92
2019-02-12T11:02:40.323Z,100300.97
2019-02-12T11:12:54.633Z,100296.91
2019-02-12T11:17:58.897Z,100301.37
2019-02-12T11:23:03.416Z,100302.03
2019-02-12T11:28:07.689Z,100292.78
2019-02-12T11:38:40.769Z,100290.92
2019-02-12T11:43:45.097Z,100291.94
2019-02-12T11:48:49.429Z,100296.81
2019-02-12T11:54:13.066Z,100290.80
2019-02-12T11:59:36.568Z,100295.51
2019-02-12T12:04:40.934Z,100290.81
2019-02-12T12:09:45.276Z,100299.51
2019-02-12T12:15:08.774Z,100297.64
2019-02-12T12:20:13.129Z,100290.07
2019-02-12T12:25:17.433Z,100293.67
2019-02-12T12:30:21.739Z,100293.85
2019-02-12T12:35:45.052Z,100294.36
2019-02-12T12:41:08.353Z,100292.23
2019-02-12T12:46:12.618Z,100292.64
2019-02-12T12:51:16.904Z,100296.70
2019-02-12T12:56:21.165Z,100294.91
2019-02-12T13:01:25.427Z,100290.88
2019-02-12T13:16:49.146Z,100294.06
2019-02-12T13:21:53.520Z,100289.73
2019-02-12T13:37:55.499Z,100294.87
2019-02-12T13:43:18.739Z,100290.92
2019-02-12T13:48:42.043Z,100285.99
2019-02-12T13:53:46.484Z,100282.83
2019-02-12T13:58:51.091Z,100268.85
2019-02-12T14:04:14.433Z,100274.95
2019-02-12T14:14:47.752Z,100274.31
2019-02-12T14:19:52.095Z,100264.36
2019-02-12T14:25:07.702Z,100276.23
2019-02-12T14:30:52.555Z,100279.27
2019-02-12T14:35:56.859Z,100286.93
2019-02-12T14:41:20.089Z,100291.84
2019-02-12T14:46:24.385Z,100283.08
2019-02-12T14:51:29.219Z,100292.75
2019-02-12T14:56:33.933Z,100291.97
2019-02-12T15:01:38.403Z,100298.23
2019-02-12T15:06:42.661Z,100303.89
2019-02-12T15:11:46.929Z,100304.58
2019-02-12T15:16:51.329Z,100301.49
2019-02-12T15:21:55.734Z,100299.13
2019-02-12T15:27:00.027Z,100290.58
2019-02-12T15:32:04.428Z,100294.87
2019-02-12T15:37:08.829Z,100294.47
2019-02-12T15:42:13.355Z,100298.05
2019-02-12T15:47:17.789Z,100297.13
2019-02-12T15:52:22.133Z,100301.22
2019-02-12T15:57:27.164Z,100302.38
2019-02-12T16:02:32.037Z,100302.27
2019-02-12T16:07:38.486Z,100313.16
2019-02-12T16:12:43.371Z,100312.64
2019-02-12T16:17:47.606Z,100324.30
2019-02-12T16:22:51.998Z,100329.63
2019-02-12T16:27:56.459Z,100323.55
2019-02-12T16:33:00.790Z,100321.69
2019-02-12T16:38:05.377Z,100312.51
2019-02-12T16:43:09.917Z,100330.98
2019-02-12T16:48:14.483Z,100329.40
2019-02-12T16:53:18.802Z,100324.95
2019-02-12T16:58:23.074Z,100335.58
2019-02-12T17:03:27.395Z,100342.42
2019-02-12T17:08:31.623Z,100346.25
2019-02-12T17:13:36.197Z,100344.49
2019-02-12T17:18:40.442Z,100348.28
2019-02-12T17:23:44.742Z,100351.22
2019-02-12T17:28:49.135Z,100366.03
2019-02-12T17:33:53.430Z,100362.77
2019-02-12T17:38:57.723Z,100370.59
2019-02-12T17:44:02.021Z,100380.63
2019-02-12T18:02:55.690Z,100390.00
2019-02-12T18:08:01.346Z,100400.52
2019-02-12T18:13:06.605Z,100398.70
2019-02-12T18:18:11.812Z,100406.69
2019-02-12T18:23:17.021Z,100414.55
2019-02-12T18:28:22.220Z,100408.48
2019-02-12T18:33:38.839Z,100408.64
2019-02-12T18:44:19.744Z,100424.69
2019-02-12T18:49:44.538Z,100420.37
2019-02-12T18:55:09.374Z,100408.41
2019-02-12T19:06:14.420Z,100411.47
2019-02-12T19:16:36.330Z,100428.49
2019-02-12T19:21:41.554Z,100426.20
2019-02-12T19:26:49.961Z,100434.20
2019-02-12T19:42:32.873Z,100430.09
2019-02-12T19:47:38.097Z,100436.26
2019-02-12T19:52:43.307Z,100425.39
2019-02-12T19:58:09.551Z,100439.30
2019-02-12T20:08:32.387Z,100435.24
2019-02-12T20:13:43.430Z,100439.97
2019-02-12T20:19:00.399Z,100450.66
2019-02-12T20:29:41.329Z,100444.09
2019-02-12T20:34:46.847Z,100440.84
2019-02-12T20:45:28.478Z,100452.58
2019-02-12T20:50:33.891Z,100442.59
2019-02-12T20:55:41.588Z,100434.20
2019-02-12T21:00:46.778Z,100440.03
2019-02-12T21:06:03.478Z,100449.28
2019-02-12T21:11:09.064Z,100452.34
2019-02-12T21:16:25.864Z,100461.75
2019-02-12T21:27:40.759Z,100465.62
2019-02-12T21:32:46.269Z,100464.37
2019-02-12T21:38:04.352Z,100463.77
2019-02-12T21:48:27.576Z,100453.22
2019-02-12T21:59:03.030Z,100466.91
2019-02-12T22:04:08.250Z,100464.41
2019-02-12T22:09:13.473Z,100468.90
2019-02-12T22:14:18.707Z,100471.60
2019-02-12T22:19:24.024Z,100477.89
2019-02-12T22:30:16.322Z,100477.01
2019-02-12T22:35:22.176Z,100464.28
2019-02-12T22:40:28.522Z,100475.66
2019-02-12T22:45:34.149Z,100482.25
2019-02-12T22:50:39.477Z,100495.32
2019-02-12T22:56:03.723Z,100501.98
2019-02-12T23:01:20.937Z,100501.60
2019-02-12T23:06:27.335Z,100507.73
2019-02-12T23:17:28.087Z,100497.28
2019-02-12T23:22:55.591Z,100501.36
2019-02-12T23:28:21.022Z,100511.63
2019-02-12T23:34:08.036Z,100519.00
2019-02-12T23:39:14.308Z,100527.78
2019-02-12T23:44:21.535Z,100529.00
2019-02-12T23:49:38.894Z,100517.50
